YMA2170 YGLA-YBRK
Flight info
| Callsign | YMA2170 |
|---|---|
| Flight time | 0h 15m |
| Altitude | 4000 |
| Route | GLZWC DCT POPEX |
| Aircraft | DH8D/M-SDE2E3FGRY/H |
Departure
| Time | 2026-05-03 23:20 |
|---|---|
| Airport | Gladstone Airport (YGLA) |
Arrival
| Time | 2026-05-03 23:35 |
|---|---|
| Airport | Rockhampton Airport (YBRK) |
| Time | Latitude | Longitude | Altitude | Speed | Heading |
|---|---|---|---|---|---|
| 2026-05-03 23:05 | -23.87100 | 151.22420 | 72 ft | 0 kts | 238° |
| 2026-05-03 23:16 | -23.87100 | 151.22414 | 72 ft | 1 kts | 279° |
| 2026-05-03 23:16 | -23.87073 | 151.22397 | 72 ft | 6 kts | 345° |
| 2026-05-03 23:16 | -23.87033 | 151.22424 | 70 ft | 10 kts | 97° |
| 2026-05-03 23:16 | -23.87057 | 151.22510 | 67 ft | 12 kts | 87° |
| 2026-05-03 23:17 | -23.86998 | 151.22584 | 63 ft | 14 kts | 89° |
| 2026-05-03 23:17 | -23.87028 | 151.22699 | 59 ft | 16 kts | 111° |
| 2026-05-03 23:17 | -23.87069 | 151.22816 | 54 ft | 16 kts | 109° |
| 2026-05-03 23:17 | -23.87108 | 151.22939 | 49 ft | 17 kts | 109° |
| 2026-05-03 23:18 | -23.87148 | 151.23058 | 46 ft | 16 kts | 110° |
| 2026-05-03 23:18 | -23.87189 | 151.23172 | 44 ft | 15 kts | 110° |
| 2026-05-03 23:18 | -23.87223 | 151.23277 | 44 ft | 13 kts | 110° |
| 2026-05-03 23:18 | -23.87238 | 151.23372 | 44 ft | 12 kts | 85° |
| 2026-05-03 23:19 | -23.87254 | 151.23370 | 44 ft | 2 kts | 283° |
| 2026-05-03 23:19 | -23.87206 | 151.23221 | 44 ft | 71 kts | 289° |
| 2026-05-03 23:19 | -23.86916 | 151.22394 | 198 ft | 146 kts | 291° |
| 2026-05-03 23:20 | -23.86479 | 151.21355 | 1033 ft | 159 kts | 291° |
| 2026-05-03 23:20 | -23.86012 | 151.20227 | 1709 ft | 176 kts | 290° |
| 2026-05-03 23:20 | -23.85526 | 151.18915 | 2272 ft | 200 kts | 292° |
| 2026-05-03 23:20 | -23.84935 | 151.17448 | 2853 ft | 219 kts | 292° |
| 2026-05-03 23:21 | -23.84332 | 151.15924 | 3551 ft | 231 kts | 291° |
| 2026-05-03 23:21 | -23.83680 | 151.14212 | 3847 ft | 257 kts | 291° |
| 2026-05-03 23:21 | -23.82990 | 151.12390 | 3934 ft | 261 kts | 291° |
| 2026-05-03 23:21 | -23.82293 | 151.10518 | 3961 ft | 266 kts | 291° |
| 2026-05-03 23:22 | -23.80869 | 151.06752 | 3948 ft | 273 kts | 291° |
| 2026-05-03 23:22 | -23.80142 | 151.04820 | 3948 ft | 274 kts | 291° |
| 2026-05-03 23:22 | -23.79422 | 151.02907 | 3949 ft | 273 kts | 291° |
| 2026-05-03 23:23 | -23.78702 | 151.00996 | 3957 ft | 272 kts | 291° |
| 2026-05-03 23:23 | -23.77982 | 150.99089 | 3965 ft | 271 kts | 291° |
| 2026-05-03 23:23 | -23.77264 | 150.97171 | 3968 ft | 271 kts | 291° |
| 2026-05-03 23:23 | -23.76548 | 150.95268 | 3967 ft | 271 kts | 291° |
| 2026-05-03 23:24 | -23.75831 | 150.93368 | 3969 ft | 271 kts | 291° |
| 2026-05-03 23:24 | -23.75120 | 150.91479 | 3968 ft | 270 kts | 292° |
| 2026-05-03 23:24 | -23.74394 | 150.89572 | 3966 ft | 270 kts | 291° |
| 2026-05-03 23:24 | -23.73691 | 150.87691 | 3979 ft | 270 kts | 291° |
| 2026-05-03 23:25 | -23.72967 | 150.85777 | 3958 ft | 271 kts | 292° |
| 2026-05-03 23:25 | -23.72254 | 150.83891 | 3903 ft | 271 kts | 291° |
| 2026-05-03 23:25 | -23.71535 | 150.81979 | 3829 ft | 270 kts | 291° |
| 2026-05-03 23:25 | -23.70822 | 150.80106 | 3770 ft | 269 kts | 292° |
| 2026-05-03 23:26 | -23.70110 | 150.78224 | 3718 ft | 268 kts | 291° |
| 2026-05-03 23:26 | -23.69402 | 150.76340 | 3670 ft | 267 kts | 291° |
| 2026-05-03 23:26 | -23.68697 | 150.74471 | 3618 ft | 266 kts | 291° |
| 2026-05-03 23:26 | -23.67996 | 150.72623 | 3570 ft | 265 kts | 291° |
| 2026-05-03 23:27 | -23.67284 | 150.70752 | 3521 ft | 264 kts | 291° |
| 2026-05-03 23:27 | -23.66589 | 150.68903 | 3499 ft | 263 kts | 291° |
| 2026-05-03 23:27 | -23.65890 | 150.67065 | 3485 ft | 255 kts | 291° |
| 2026-05-03 23:27 | -23.65236 | 150.65352 | 3480 ft | 241 kts | 292° |
| 2026-05-03 23:28 | -23.64611 | 150.63702 | 3481 ft | 228 kts | 291° |
| 2026-05-03 23:28 | -23.64026 | 150.62146 | 3478 ft | 214 kts | 291° |
| 2026-05-03 23:28 | -23.63476 | 150.60700 | 3475 ft | 198 kts | 291° |
| 2026-05-03 23:28 | -23.62972 | 150.59380 | 3469 ft | 182 kts | 294° |
| 2026-05-03 23:29 | -23.62198 | 150.58409 | 3452 ft | 160 kts | 334° |
| 2026-05-03 23:29 | -23.61197 | 150.57925 | 3483 ft | 156 kts | 340° |
| 2026-05-03 23:29 | -23.60193 | 150.57474 | 3488 ft | 153 kts | 340° |
| 2026-05-03 23:29 | -23.59231 | 150.57034 | 3481 ft | 147 kts | 340° |
| 2026-05-03 23:30 | -23.58280 | 150.56607 | 3490 ft | 148 kts | 341° |
| 2026-05-03 23:30 | -23.57315 | 150.56175 | 3495 ft | 150 kts | 340° |
| 2026-05-03 23:30 | -23.56354 | 150.55745 | 3493 ft | 151 kts | 341° |
| 2026-05-03 23:30 | -23.55360 | 150.55302 | 3400 ft | 152 kts | 341° |
| 2026-05-03 23:31 | -23.54375 | 150.54863 | 3258 ft | 158 kts | 340° |
| 2026-05-03 23:31 | -23.53341 | 150.54398 | 3057 ft | 159 kts | 340° |
| 2026-05-03 23:31 | -23.52337 | 150.53940 | 2842 ft | 152 kts | 340° |
| 2026-05-03 23:31 | -23.51392 | 150.53508 | 2631 ft | 143 kts | 340° |
| 2026-05-03 23:32 | -23.50462 | 150.53084 | 2447 ft | 146 kts | 341° |
| 2026-05-03 23:32 | -23.49513 | 150.52666 | 2241 ft | 150 kts | 341° |
| 2026-05-03 23:32 | -23.48544 | 150.52235 | 2022 ft | 147 kts | 341° |
| 2026-05-03 23:32 | -23.47611 | 150.51823 | 1814 ft | 142 kts | 341° |
| 2026-05-03 23:33 | -23.46703 | 150.51421 | 1615 ft | 136 kts | 341° |
| 2026-05-03 23:33 | -23.45848 | 150.51042 | 1439 ft | 133 kts | 341° |
| 2026-05-03 23:33 | -23.44986 | 150.50659 | 1269 ft | 133 kts | 341° |
| 2026-05-03 23:33 | -23.44123 | 150.50296 | 1099 ft | 133 kts | 343° |
| 2026-05-03 23:34 | -23.43249 | 150.49936 | 926 ft | 134 kts | 343° |
| 2026-05-03 23:34 | -23.42377 | 150.49562 | 753 ft | 136 kts | 339° |
| 2026-05-03 23:34 | -23.41514 | 150.49126 | 592 ft | 135 kts | 338° |
| 2026-05-03 23:34 | -23.40652 | 150.48717 | 417 ft | 135 kts | 341° |
| 2026-05-03 23:35 | -23.39765 | 150.48325 | 225 ft | 138 kts | 340° |
| 2026-05-03 23:35 | -23.38879 | 150.47931 | 84 ft | 134 kts | 340° |
| 2026-05-03 23:35 | -23.38063 | 150.47574 | 42 ft | 111 kts | 338° |
| 2026-05-03 23:35 | -23.37622 | 150.47376 | 43 ft | 18 kts | 338° |
| 2026-05-03 23:36 | -23.37604 | 150.47368 | 43 ft | 0 kts | 338° |
| 2026-05-03 23:36 | -23.37601 | 150.47353 | 44 ft | 3 kts | 213° |
| 2026-05-03 23:36 | -23.37650 | 150.47398 | 44 ft | 13 kts | 111° |
| 2026-05-03 23:37 | -23.37669 | 150.47502 | 44 ft | 14 kts | 101° |
| 2026-05-03 23:37 | -23.37687 | 150.47600 | 44 ft | 11 kts | 98° |
| 2026-05-03 23:37 | -23.37695 | 150.47670 | 44 ft | 9 kts | 105° |
| 2026-05-03 23:37 | -23.37691 | 150.47697 | 43 ft | 0 kts | 68° |